»·PEaware :: N179TD 46CN-KSNA

N179TD :: 46CN-KSNA

FLIGHT INFORMATION

Flight Status: Arrived
Operator: Privately registered:
United States
More flights under this callsign
Pilot: Terry D. (17346)
Aircraft: BEECH AIRCRAFT BARON
(BE58)
More flights by this aircraft type
Origin: 46CN Crystal Airport
United States
Destination: KSNA John Wayne-Orange Co
United States
More flights between these airports :: More routes between these airports
Route: PMD V201 BERRI V459 SLI
File this flight plan on PilotEdge
Remarks:
Altitude:
(Current/Filed)
11,000ft
Speed:
(Current/Filed)
175kts
Departed: 07-Dec-17 09:13 AM
Arrived: 07-Dec-17 09:45 AM
Distance/Time
Traveled:
49nm/0:32
Distance/Time
To Go:
Arrived

Flight Plot

Page will automatically refresh every two minutes.

Flight plan parsing failed; only flown route is shown


Map Options




Map Legend


Flown Route
Filed Route
Departure Airport
Arrival Airport
Navaid (VOR, NDB)
Fix

Horizontal Profiles

Position Reports

Time Latitude Longitude Heading Altitude Ground
Speed
07-Dec-17 08:49 34.484977 -117.830006 232 3413ft 0kts
07-Dec-17 08:50 34.484977 -117.830006 232 3413ft 0kts
07-Dec-17 08:51 34.484977 -117.830006 232 3413ft 0kts
07-Dec-17 08:52 34.484977 -117.830006 232 3413ft 0kts
07-Dec-17 08:53 34.484977 -117.830006 232 3413ft 0kts
07-Dec-17 08:54 34.484977 -117.830006 232 3413ft 0kts
07-Dec-17 08:55 34.484977 -117.830006 232 3413ft 0kts
07-Dec-17 08:56 34.484977 -117.830006 232 3413ft 0kts
07-Dec-17 08:57 34.484977 -117.830006 232 3413ft 0kts
07-Dec-17 08:58 34.484977 -117.830006 232 3413ft 0kts
07-Dec-17 08:59 34.484977 -117.830006 232 3413ft 0kts
07-Dec-17 09:00 34.484977 -117.830006 232 3413ft 0kts
07-Dec-17 09:01 34.484977 -117.830006 232 3413ft 0kts
07-Dec-17 09:02 34.484977 -117.830006 232 3413ft 0kts
07-Dec-17 09:03 34.484977 -117.830006 232 3413ft 0kts
07-Dec-17 09:04 34.484977 -117.830006 232 3413ft 0kts
07-Dec-17 09:05 34.484977 -117.830006 232 3413ft 0kts
07-Dec-17 09:06 34.484977 -117.830006 232 3413ft 0kts
07-Dec-17 09:07 34.484977 -117.830006 232 3413ft 0kts
07-Dec-17 09:08 34.484977 -117.830006 232 3413ft 0kts
07-Dec-17 09:09 34.484977 -117.830006 232 3413ft 0kts
07-Dec-17 09:10 34.484977 -117.830006 232 3413ft 0kts
07-Dec-17 09:11 34.484977 -117.830006 232 3413ft 0kts
07-Dec-17 09:12 34.484977 -117.830006 232 3413ft 0kts
07-Dec-17 09:13 34.484977 -117.830006 232 3413ft 0kts
07-Dec-17 09:14 34.484977 -117.830006 232 3413ft 0kts
07-Dec-17 09:15 34.484977 -117.830006 232 3413ft 0kts
07-Dec-17 09:16 34.484977 -117.830006 232 3413ft 0kts
07-Dec-17 09:17 34.484977 -117.830006 232 3413ft 0kts
07-Dec-17 09:18 34.484702 -117.821578 90 3421ft 102kts
07-Dec-17 09:19 34.497682 -117.813077 281 4714ft 119kts
07-Dec-17 09:20 34.506299 -117.851628 295 6078ft 111kts
07-Dec-17 09:21 34.516531 -117.887488 261 7147ft 124kts
07-Dec-17 09:22 34.511849 -117.927276 271 8243ft 125kts
07-Dec-17 09:23 34.513784 -117.970834 281 8942ft 151kts
07-Dec-17 09:24 34.505274 -118.025852 253 9050ft 184kts
07-Dec-17 09:25 34.489887 -118.087764 260 8845ft 196kts
07-Dec-17 09:26 34.466840 -118.145544 239 8930ft 195kts
07-Dec-17 09:28 34.420484 -118.175629 201 8981ft 190kts
07-Dec-17 09:29 34.370769 -118.201974 201 8908ft 197kts
07-Dec-17 09:30 34.320662 -118.228445 201 8907ft 197kts
07-Dec-17 09:31 34.270410 -118.254957 201 8943ft 198kts
07-Dec-17 09:32 34.220327 -118.281341 201 8992ft 199kts
07-Dec-17 09:33 34.170453 -118.277407 149 8992ft 188kts
07-Dec-17 09:34 34.125884 -118.252036 149 8992ft 187kts
07-Dec-17 09:35 34.087731 -118.230012 152 9001ft 185kts
07-Dec-17 09:36 34.048572 -118.207391 149 9009ft 186kts
07-Dec-17 09:37 34.007727 -118.183830 149 9005ft 186kts
07-Dec-17 09:38 33.962052 -118.157485 150 8668ft 198kts
07-Dec-17 09:39 33.915045 -118.130440 150 7952ft 204kts
07-Dec-17 09:40 33.866970 -118.102789 150 7203ft 203kts
07-Dec-17 09:41 33.845962 -118.054872 82 6428ft 190kts
07-Dec-17 09:41 33.850285 -118.015726 81 5923ft 187kts
07-Dec-17 09:43 33.856562 -117.961611 81 5220ft 186kts
07-Dec-17 09:44 33.842708 -117.910993 111 4526ft 187kts
07-Dec-17 09:45 33.825170 -117.861577 111 3810ft 176kts
07-Dec-17 09:46 33.799455 -117.816955 136 3038ft 168kts
07-Dec-17 09:47 33.761100 -117.810871 192 2976ft 108kts
07-Dec-17 09:48 33.740317 -117.829611 197 2196ft 113kts
07-Dec-17 09:48 33.720070 -117.843356 193 1343ft 99kts
07-Dec-17 09:50 33.689811 -117.859898 200 395ft 114kts
07-Dec-17 09:50 33.674184 -117.870415 139 57ft 0kts
07-Dec-17 09:51 33.674184 -117.870415 139 57ft 0kts
07-Dec-17 09:52 33.674184 -117.870415 139 57ft 0kts
07-Dec-17 09:53 33.674940 -117.871546 31 57ft 8kts
07-Dec-17 09:54 33.675112 -117.871422 30 57ft 0kts

Navigation Log

Ident Type
Flight plan parsing failed, navigation log unavailable